createdAt,value
2023-04-12T00:00:00.550Z,96503.91
2023-04-12T00:02:27.450Z,96495.41
2023-04-12T00:04:57.924Z,96488.59
2023-04-12T00:07:24.869Z,96495.16
2023-04-12T00:09:51.602Z,96492.94
2023-04-12T00:12:19.220Z,96494.09
2023-04-12T00:14:46.167Z,96483.31
2023-04-12T00:17:12.639Z,96488.75
2023-04-12T00:19:42.735Z,96485.75
2023-04-12T00:22:09.534Z,96475.16
2023-04-12T00:24:35.994Z,96472.13
2023-04-12T00:27:02.392Z,96471.41
2023-04-12T00:29:28.884Z,96470.81
2023-04-12T00:31:55.211Z,96466.16
2023-04-12T00:34:21.556Z,96468.63
2023-04-12T00:36:47.895Z,96464.28
2023-04-12T00:39:14.221Z,96471.19
2023-04-12T00:41:40.649Z,96453.91
2023-04-12T00:44:08.807Z,96434.75
2023-04-12T00:46:35.519Z,96442.31
2023-04-12T00:49:02.811Z,96441.31
2023-04-12T00:51:33.246Z,96427.41
2023-04-12T00:54:01.111Z,96436.63
2023-04-12T00:56:28.574Z,96438.25
2023-04-12T00:58:55.740Z,96432.53
2023-04-12T01:01:22.179Z,96436.25
2023-04-12T01:03:50.603Z,96426.66
2023-04-12T01:06:29.797Z,96431.84
2023-04-12T01:09:00.585Z,96425.88
2023-04-12T01:11:26.887Z,96421.03
2023-04-12T01:14:19.660Z,96420.97
2023-04-12T01:16:51.607Z,96425.56
2023-04-12T01:19:30.014Z,96419.44
2023-04-12T01:22:06.037Z,96422.81
2023-04-12T01:24:41.629Z,96404.75
2023-04-12T01:27:13.546Z,96402.38
2023-04-12T01:29:40.539Z,96398.72
2023-04-12T01:32:09.167Z,96391.22
2023-04-12T01:34:37.091Z,96390.13
2023-04-12T01:37:03.737Z,96382.63
2023-04-12T01:39:32.382Z,96381.94
2023-04-12T01:41:59.363Z,96384.03
2023-04-12T01:44:25.767Z,96382.91
2023-04-12T01:46:53.026Z,96376.06
2023-04-12T01:49:19.472Z,96368.69
2023-04-12T01:51:45.814Z,96368.16
2023-04-12T01:54:13.925Z,96373.31
2023-04-12T01:56:41.818Z,96367.34
2023-04-12T01:59:09.165Z,96363.25
2023-04-12T02:01:35.748Z,96372.94
2023-04-12T02:04:04.583Z,96372.78
2023-04-12T02:06:31.895Z,96364.59
2023-04-12T02:08:59.952Z,96359.69
2023-04-12T02:11:26.359Z,96358.19
2023-04-12T02:13:52.693Z,96350.94
2023-04-12T02:16:20.564Z,96350.81
2023-04-12T02:18:47.609Z,96341.44
2023-04-12T02:21:14.032Z,96342.22
2023-04-12T02:23:41.816Z,96332.38
2023-04-12T02:26:08.182Z,96324.66
2023-04-12T02:28:34.748Z,96321.50
2023-04-12T02:31:02.198Z,96312.22
2023-04-12T02:33:29.125Z,96312.91
2023-04-12T02:35:57.343Z,96311.69
2023-04-12T02:38:23.826Z,96303.22
2023-04-12T02:40:50.221Z,96298.56
2023-04-12T02:43:16.751Z,96308.50
2023-04-12T02:45:43.130Z,96303.22
2023-04-12T02:48:09.580Z,96303.75
2023-04-12T02:50:36.893Z,96300.75
2023-04-12T02:53:03.252Z,96291.06
2023-04-12T02:55:30.580Z,96287.13
2023-04-12T02:57:57.364Z,96284.38
2023-04-12T03:00:23.899Z,96290.25
2023-04-12T03:02:53.362Z,96281.09
2023-04-12T03:05:20.068Z,96272.63
2023-04-12T03:07:46.686Z,96270.47
2023-04-12T03:10:13.285Z,96268.81
2023-04-12T03:12:39.761Z,96276.03
2023-04-12T03:15:06.432Z,96278.25
2023-04-12T03:17:32.826Z,96275.09
2023-04-12T03:20:07.994Z,96276.88
2023-04-12T03:22:34.324Z,96280.28
2023-04-12T03:25:01.467Z,96271.00
2023-04-12T03:27:27.799Z,96272.09
2023-04-12T03:29:54.144Z,96269.66
2023-04-12T03:32:21.244Z,96268.81
2023-04-12T03:34:47.602Z,96264.31
2023-04-12T03:37:13.968Z,96266.91
2023-04-12T03:39:41.347Z,96251.59
2023-04-12T03:42:10.209Z,96247.50
2023-04-12T03:44:43.167Z,96243.41
2023-04-12T03:47:09.516Z,96240.41
2023-04-12T03:49:38.407Z,96234.13
2023-04-12T03:52:06.031Z,96236.88
2023-04-12T03:54:32.525Z,96232.50
2023-04-12T03:56:59.067Z,96230.84
2023-04-12T03:59:25.523Z,96230.75
2023-04-12T04:01:53.142Z,96231.94
2023-04-12T04:04:19.760Z,96229.47
2023-04-12T04:06:46.958Z,96226.88
2023-04-12T04:09:13.310Z,96231.66
2023-04-12T04:11:39.634Z,96236.03
2023-04-12T04:14:06.137Z,96229.66
2023-04-12T04:16:32.727Z,96228.94
2023-04-12T04:18:59.143Z,96223.84
2023-04-12T04:21:26.533Z,96223.75
2023-04-12T04:23:52.957Z,96228.22
2023-04-12T04:26:20.288Z,96217.16
2023-04-12T04:28:47.359Z,96209.38
2023-04-12T04:31:13.919Z,96222.13
2023-04-12T04:33:41.665Z,96238.22
2023-04-12T04:36:09.245Z,96228.63
2023-04-12T04:38:36.256Z,96225.91
2023-04-12T04:41:03.776Z,96233.44
2023-04-12T04:43:30.407Z,96228.31
2023-04-12T04:45:57.554Z,96223.97
2023-04-12T04:48:24.205Z,96225.63
2023-04-12T04:50:54.287Z,96226.16
2023-04-12T04:53:22.498Z,96217.28
2023-04-12T04:55:49.012Z,96210.28
2023-04-12T04:58:16.190Z,96205.34
2023-04-12T05:00:44.931Z,96214.63
2023-04-12T05:03:11.958Z,96218.94
2023-04-12T05:05:38.540Z,96222.75
2023-04-12T05:08:04.991Z,96215.88
2023-04-12T05:10:31.416Z,96214.78
2023-04-12T05:12:58.081Z,96209.81
2023-04-12T05:15:24.398Z,96211.63
2023-04-12T05:17:51.072Z,96214.75
2023-04-12T05:20:18.419Z,96212.25
2023-04-12T05:22:44.758Z,96207.69
2023-04-12T05:25:11.109Z,96201.59
2023-04-12T05:27:37.431Z,96202.38
2023-04-12T05:30:04.090Z,96196.28
2023-04-12T05:32:31.148Z,96187.88
2023-04-12T05:34:58.780Z,96187.09
2023-04-12T05:37:26.286Z,96193.03
2023-04-12T05:39:52.734Z,96190.59
2023-04-12T05:42:19.077Z,96188.22
2023-04-12T05:44:47.423Z,96175.31
2023-04-12T05:47:14.922Z,96172.41
2023-04-12T05:49:41.269Z,96169.84
2023-04-12T05:52:07.600Z,96161.63
2023-04-12T05:54:34.036Z,96161.69
2023-04-12T05:57:00.376Z,96153.63
2023-04-12T05:59:26.753Z,96146.19
2023-04-12T06:01:53.138Z,96157.84
2023-04-12T06:04:19.897Z,96149.28
2023-04-12T06:06:47.474Z,96151.72
2023-04-12T06:09:15.156Z,96149.06
2023-04-12T06:11:41.486Z,96138.44
2023-04-12T06:14:09.049Z,96139.88
2023-04-12T06:16:36.559Z,96133.34
2023-04-12T06:19:02.966Z,96128.44
2023-04-12T06:21:29.640Z,96128.00
2023-04-12T06:23:56.070Z,96131.72
2023-04-12T06:26:22.478Z,96121.34
2023-04-12T06:28:50.830Z,96115.50
2023-04-12T06:31:17.332Z,96101.72
2023-04-12T06:33:43.814Z,96104.66
2023-04-12T06:36:11.526Z,96097.19
2023-04-12T06:38:38.332Z,96091.47
2023-04-12T06:41:04.790Z,96081.72
2023-04-12T06:43:31.774Z,96080.47
2023-04-12T06:45:58.463Z,96085.66
2023-04-12T06:48:24.868Z,96088.25
2023-04-12T06:50:51.273Z,96093.66
2023-04-12T06:53:17.597Z,96084.34
2023-04-12T06:55:44.225Z,96081.63
2023-04-12T06:58:10.526Z,96080.50
2023-04-12T07:00:37.747Z,96078.38
2023-04-12T07:03:04.195Z,96074.31
2023-04-12T07:05:30.548Z,96071.53
2023-04-12T07:07:58.009Z,96071.38
2023-04-12T07:10:24.347Z,96063.56
2023-04-12T07:12:52.023Z,96067.31
2023-04-12T07:15:18.562Z,96065.97
2023-04-12T07:17:45.186Z,96064.19
2023-04-12T07:20:11.922Z,96066.78
2023-04-12T07:22:38.477Z,96055.72
2023-04-12T07:25:09.901Z,96055.69
2023-04-12T07:27:36.543Z,96049.50
2023-04-12T07:30:04.263Z,96046.94
2023-04-12T07:32:30.764Z,96042.50
2023-04-12T07:34:57.285Z,96044.44
2023-04-12T07:37:23.669Z,96049.88
2023-04-12T07:39:50.165Z,96054.41
2023-04-12T07:42:16.768Z,96050.03
2023-04-12T07:44:43.250Z,96042.03
2023-04-12T07:47:09.587Z,96033.22
2023-04-12T07:49:37.355Z,96039.09
2023-04-12T07:52:03.846Z,96033.22
2023-04-12T07:54:30.357Z,96023.94
2023-04-12T07:57:00.131Z,96031.78
2023-04-12T07:59:26.729Z,96028.66
2023-04-12T08:01:53.123Z,96018.06
2023-04-12T08:04:19.749Z,96009.41
2023-04-12T08:06:46.358Z,96002.09
2023-04-12T08:09:15.399Z,96013.97
2023-04-12T08:11:41.757Z,96004.47
2023-04-12T08:14:08.338Z,96004.44
2023-04-12T08:16:34.799Z,95994.06
2023-04-12T08:19:01.410Z,95996.66
2023-04-12T08:21:27.785Z,95993.44
2023-04-12T08:23:54.210Z,95975.47
2023-04-12T08:26:21.217Z,95984.25
2023-04-12T08:28:48.606Z,95985.44
2023-04-12T08:31:15.465Z,95974.91
2023-04-12T08:33:41.825Z,95971.25
2023-04-12T08:36:08.409Z,95973.94
2023-04-12T08:38:44.838Z,95968.25
2023-04-12T08:41:12.567Z,95965.44
2023-04-12T08:43:42.074Z,95963.91
2023-04-12T08:46:08.961Z,95967.97
2023-04-12T08:48:36.201Z,95958.13
2023-04-12T08:51:02.839Z,95953.81
2023-04-12T08:53:29.176Z,95961.31
2023-04-12T08:55:55.697Z,95941.84
2023-04-12T08:58:24.919Z,95946.81
2023-04-12T09:00:51.469Z,95941.66
2023-04-12T09:03:18.187Z,95935.34
2023-04-12T09:05:44.799Z,95939.66
2023-04-12T09:08:12.073Z,95928.59
2023-04-12T09:10:39.631Z,95935.78
2023-04-12T09:13:06.551Z,95926.31
2023-04-12T09:15:33.975Z,95926.16
2023-04-12T09:18:04.106Z,95911.63
2023-04-12T09:20:30.648Z,95918.34
2023-04-12T09:22:57.149Z,95907.13
2023-04-12T09:25:36.174Z,95906.34
2023-04-12T09:28:02.493Z,95899.06
2023-04-12T09:30:28.845Z,95899.09
2023-04-12T09:32:55.787Z,95882.78
2023-04-12T09:35:35.585Z,95885.06
2023-04-12T09:38:09.049Z,95885.03
2023-04-12T09:40:36.408Z,95879.19
2023-04-12T09:43:03.775Z,95878.19
2023-04-12T09:45:33.821Z,95868.72
2023-04-12T09:48:00.270Z,95864.78
2023-04-12T09:50:28.486Z,95854.75
2023-04-12T09:52:55.600Z,95868.38
2023-04-12T09:55:22.747Z,95858.28
2023-04-12T09:57:50.593Z,95852.13
2023-04-12T10:00:18.169Z,95846.63
2023-04-12T10:02:47.165Z,95845.06
2023-04-12T10:05:15.636Z,95835.50
2023-04-12T10:07:42.706Z,95835.81
2023-04-12T10:10:09.761Z,95835.06
2023-04-12T10:12:37.233Z,95820.56
2023-04-12T10:15:07.422Z,95822.34
2023-04-12T10:17:35.147Z,95809.53
2023-04-12T10:20:02.984Z,95811.06
2023-04-12T10:22:29.362Z,95806.22
2023-04-12T10:24:55.804Z,95800.84
2023-04-12T10:27:26.362Z,95812.88
2023-04-12T10:29:52.801Z,95793.66
2023-04-12T10:32:23.089Z,95797.13
2023-04-12T10:34:52.441Z,95792.22
2023-04-12T10:37:18.851Z,95787.59
2023-04-12T10:39:51.387Z,95783.03
2023-04-12T10:42:29.271Z,95782.13
2023-04-12T10:44:58.735Z,95782.75
2023-04-12T10:47:52.989Z,95779.38
2023-04-12T10:50:21.491Z,95770.03
2023-04-12T10:53:06.904Z,95782.88
2023-04-12T10:55:33.534Z,95785.72
2023-04-12T10:58:00.015Z,95779.06
2023-04-12T11:00:46.545Z,95776.38
2023-04-12T11:03:13.979Z,95772.56
2023-04-12T11:06:09.633Z,95766.03
2023-04-12T11:08:46.471Z,95759.41
2023-04-12T11:11:20.175Z,95752.16
2023-04-12T11:13:46.692Z,95742.53
2023-04-12T11:16:13.361Z,95738.16
2023-04-12T11:18:39.909Z,95739.66
2023-04-12T11:21:06.537Z,95734.91
2023-04-12T11:23:33.113Z,95716.75
2023-04-12T11:25:59.611Z,95717.00
2023-04-12T11:28:29.051Z,95705.25
2023-04-12T11:30:58.356Z,95708.78
2023-04-12T11:33:50.972Z,95708.03
2023-04-12T11:36:17.592Z,95709.72
2023-04-12T11:38:46.131Z,95705.44
2023-04-12T11:41:14.567Z,95704.97
2023-04-12T11:43:40.991Z,95701.31
2023-04-12T11:46:07.520Z,95693.69
2023-04-12T11:48:34.045Z,95692.28
2023-04-12T11:51:10.994Z,95690.78
2023-04-12T11:53:37.922Z,95691.19
2023-04-12T11:56:04.376Z,95680.56
2023-04-12T11:58:30.792Z,95677.84
2023-04-12T12:00:58.497Z,95673.31
2023-04-12T12:03:25.241Z,95671.66
2023-04-12T12:05:52.295Z,95671.69
2023-04-12T12:08:19.760Z,95673.38
2023-04-12T12:13:18.591Z,95665.31
2023-04-12T12:15:45.863Z,95662.88
2023-04-12T12:18:12.462Z,95666.75
2023-04-12T12:20:59.564Z,95656.34
2023-04-12T12:23:29.964Z,95662.81
2023-04-12T12:26:10.588Z,95658.63
2023-04-12T12:28:44.811Z,95654.03
2023-04-12T12:31:12.444Z,95658.28
2023-04-12T12:33:46.435Z,95643.19
2023-04-12T12:36:17.027Z,95642.16
2023-04-12T12:38:43.378Z,95637.88
2023-04-12T12:41:16.876Z,95639.31
2023-04-12T12:43:52.792Z,95632.59
2023-04-12T12:46:20.027Z,95633.81
2023-04-12T12:48:47.273Z,95631.69
2023-04-12T12:51:17.688Z,95622.84
2023-04-12T12:53:44.209Z,95613.47
2023-04-12T12:56:11.641Z,95615.22
2023-04-12T12:58:40.721Z,95609.81
2023-04-12T13:01:07.995Z,95600.78
2023-04-12T13:03:34.635Z,95601.31
2023-04-12T13:06:01.128Z,95600.81
2023-04-12T13:08:35.099Z,95604.44
2023-04-12T13:11:01.483Z,95598.22
2023-04-12T13:13:27.923Z,95600.03
2023-04-12T13:15:56.402Z,95592.94
2023-04-12T13:18:22.779Z,95586.19
2023-04-12T13:20:49.290Z,95580.13
2023-04-12T13:23:16.688Z,95580.53
2023-04-12T13:25:43.091Z,95567.19
2023-04-12T13:28:09.820Z,95569.03
2023-04-12T13:30:36.297Z,95563.38
2023-04-12T13:33:02.753Z,95557.59
2023-04-12T13:35:29.203Z,95557.94
2023-04-12T13:37:55.845Z,95549.53
2023-04-12T13:40:22.275Z,95548.13
2023-04-12T13:42:48.692Z,95563.94
2023-04-12T13:45:16.151Z,95558.88
2023-04-12T13:47:42.910Z,95555.31
2023-04-12T13:50:09.600Z,95538.66
2023-04-12T13:52:37.097Z,95540.25
2023-04-12T13:55:07.908Z,95537.84
2023-04-12T13:57:35.536Z,95532.44
2023-04-12T14:00:01.883Z,95530.78
2023-04-12T14:02:30.726Z,95535.63
2023-04-12T14:04:57.825Z,95537.22
2023-04-12T14:07:24.652Z,95527.91
2023-04-12T14:09:51.354Z,95528.53
2023-04-12T14:12:17.764Z,95514.66
2023-04-12T14:14:44.504Z,95520.31
2023-04-12T14:17:11.468Z,95521.53
2023-04-12T14:19:39.592Z,95518.09
2023-04-12T14:22:06.154Z,95520.09
2023-04-12T14:24:32.741Z,95511.63
2023-04-12T14:27:00.989Z,95503.16
2023-04-12T14:29:27.464Z,95507.41
2023-04-12T14:31:53.899Z,95496.69
2023-04-12T14:34:21.758Z,95508.81
2023-04-12T14:36:48.279Z,95497.50
2023-04-12T14:39:16.082Z,95498.91
2023-04-12T14:41:43.272Z,95493.69
2023-04-12T14:44:09.894Z,95488.03
2023-04-12T14:46:37.382Z,95483.19
2023-04-12T14:49:03.872Z,95482.19
2023-04-12T14:51:30.422Z,95477.94
2023-04-12T14:53:57.661Z,95486.63
2023-04-12T14:56:27.847Z,95472.88
2023-04-12T14:58:56.055Z,95478.13
2023-04-12T15:01:23.629Z,95477.94
2023-04-12T15:03:51.921Z,95470.47
2023-04-12T15:06:19.387Z,95476.53
2023-04-12T15:08:47.110Z,95459.13
2023-04-12T15:11:13.578Z,95452.03
2023-04-12T15:13:42.322Z,95456.06
2023-04-12T15:16:09.291Z,95454.06
2023-04-12T15:18:39.401Z,95472.34
2023-04-12T15:21:08.174Z,95464.13
2023-04-12T15:23:35.670Z,95458.03
2023-04-12T15:26:02.511Z,95466.38
2023-04-12T15:28:29.207Z,95467.78
2023-04-12T15:30:55.683Z,95459.41
2023-04-12T15:33:22.206Z,95456.28
2023-04-12T15:35:49.435Z,95454.69
2023-04-12T15:38:23.373Z,95451.66
2023-04-12T15:40:57.385Z,95453.03
2023-04-12T15:43:24.164Z,95446.94
2023-04-12T15:45:53.265Z,95445.94
2023-04-12T15:48:20.673Z,95449.72
2023-04-12T15:50:48.593Z,95432.34
2023-04-12T15:53:19.299Z,95431.97
2023-04-12T15:55:46.996Z,95436.06
2023-04-12T15:58:14.299Z,95426.00
2023-04-12T16:00:42.841Z,95434.88
2023-04-12T16:03:09.897Z,95425.16
2023-04-12T16:05:36.913Z,95418.28
2023-04-12T16:08:03.914Z,95420.31
2023-04-12T16:10:30.378Z,95421.47
2023-04-12T16:12:57.287Z,95425.13
2023-04-12T16:15:23.851Z,95434.34
2023-04-12T16:17:53.255Z,95434.44
2023-04-12T16:20:22.777Z,95424.34
2023-04-12T16:22:50.295Z,95421.88
2023-04-12T16:25:17.036Z,95423.13
2023-04-12T16:27:43.732Z,95420.22
2023-04-12T16:30:12.040Z,95423.72
2023-04-12T16:32:38.612Z,95422.13
2023-04-12T16:35:05.842Z,95413.78
2023-04-12T16:37:32.377Z,95410.50
2023-04-12T16:40:01.086Z,95408.06
2023-04-12T16:42:28.371Z,95405.50
2023-04-12T16:44:54.801Z,95403.59
2023-04-12T16:47:22.003Z,95400.78
2023-04-12T16:49:48.505Z,95395.97
2023-04-12T16:52:15.618Z,95391.88
2023-04-12T16:54:42.086Z,95385.91
2023-04-12T16:57:08.670Z,95383.28
2023-04-12T16:59:35.034Z,95377.75
2023-04-12T17:02:01.978Z,95374.38
2023-04-12T17:04:28.716Z,95385.09
2023-04-12T17:06:55.356Z,95373.81
2023-04-12T17:09:22.046Z,95361.59
2023-04-12T17:11:48.780Z,95362.81
2023-04-12T17:14:15.235Z,95358.81
2023-04-12T17:16:42.422Z,95359.59
2023-04-12T17:19:10.574Z,95355.78
2023-04-12T17:21:41.149Z,95356.00
2023-04-12T17:24:07.857Z,95351.59
2023-04-12T17:26:34.546Z,95357.56
2023-04-12T17:29:01.169Z,95350.97
2023-04-12T17:31:29.340Z,95343.19
2023-04-12T17:33:56.162Z,95342.31
2023-04-12T17:36:22.753Z,95343.34
2023-04-12T17:38:51.588Z,95348.47
2023-04-12T17:41:17.936Z,95346.75
2023-04-12T17:43:45.550Z,95336.00
2023-04-12T17:46:11.963Z,95341.31
2023-04-12T17:48:38.391Z,95331.63
2023-04-12T17:51:06.676Z,95342.41
2023-04-12T17:53:33.866Z,95339.59
2023-04-12T17:56:00.422Z,95341.66
2023-04-12T17:58:27.785Z,95337.59
2023-04-12T18:00:54.261Z,95334.34
2023-04-12T18:03:21.378Z,95328.94
2023-04-12T18:05:48.059Z,95340.41
2023-04-12T18:08:16.661Z,95342.41
2023-04-12T18:10:43.211Z,95345.84
2023-04-12T18:13:09.898Z,95350.91
2023-04-12T18:15:36.323Z,95367.06
2023-04-12T18:18:04.535Z,95374.09
2023-04-12T18:20:31.306Z,95364.84
2023-04-12T18:22:57.778Z,95387.88
2023-04-12T18:25:24.265Z,95378.47
2023-04-12T18:27:51.368Z,95406.88
2023-04-12T18:30:19.477Z,95397.28
2023-04-12T18:32:46.488Z,95423.41
2023-04-12T18:35:12.844Z,95424.44
2023-04-12T18:37:41.091Z,95430.91
2023-04-12T18:40:07.637Z,95416.38
2023-04-12T18:42:34.748Z,95411.69
2023-04-12T18:45:02.339Z,95416.91
2023-04-12T18:47:28.818Z,95410.28
2023-04-12T18:49:55.201Z,95415.56
2023-04-12T18:52:21.599Z,95423.22
2023-04-12T18:54:47.990Z,95431.09
2023-04-12T18:57:15.884Z,95429.06
2023-04-12T18:59:42.419Z,95437.16
2023-04-12T19:02:09.334Z,95439.59
2023-04-12T19:04:37.044Z,95438.34
2023-04-12T19:07:03.439Z,95432.09
2023-04-12T19:09:29.933Z,95427.25
2023-04-12T19:11:57.266Z,95423.19
2023-04-12T19:14:25.174Z,95418.97
2023-04-12T19:16:53.034Z,95418.59
2023-04-12T19:19:19.386Z,95427.66
2023-04-12T19:21:45.942Z,95440.19
2023-04-12T19:24:12.335Z,95440.59
2023-04-12T19:26:45.440Z,95451.91
2023-04-12T19:29:14.859Z,95461.38
2023-04-12T19:31:43.281Z,95468.47
2023-04-12T19:34:09.858Z,95478.75
2023-04-12T19:36:36.748Z,95486.22
2023-04-12T19:39:03.392Z,95479.34
2023-04-12T19:41:29.784Z,95483.00
2023-04-12T19:43:56.817Z,95491.47
2023-04-12T19:46:25.713Z,95504.75
2023-04-12T19:48:53.400Z,95487.41
2023-04-12T19:51:19.738Z,95485.81
2023-04-12T19:53:51.170Z,95475.31
2023-04-12T19:56:17.483Z,95472.09
2023-04-12T19:58:45.871Z,95470.47
2023-04-12T20:01:13.654Z,95490.25
2023-04-12T20:03:43.671Z,95485.41
2023-04-12T20:06:10.986Z,95466.22
2023-04-12T20:08:37.512Z,95490.47
2023-04-12T20:11:03.942Z,95484.59
2023-04-12T20:13:31.306Z,95457.97
2023-04-12T20:16:00.833Z,95467.84
2023-04-12T20:18:29.709Z,95463.19
2023-04-12T20:20:57.920Z,95457.34
2023-04-12T20:23:25.737Z,95456.16
2023-04-12T20:25:52.160Z,95425.09
2023-04-12T20:28:19.773Z,95424.69
2023-04-12T20:30:48.113Z,95462.41
2023-04-12T20:33:15.078Z,95469.69
2023-04-12T20:35:42.500Z,95464.03
2023-04-12T20:38:08.985Z,95464.44
2023-04-12T20:40:35.845Z,95463.81
2023-04-12T20:43:03.389Z,95459.56
2023-04-12T20:45:29.984Z,95458.38
2023-04-12T20:47:56.529Z,95434.19
2023-04-12T20:50:24.519Z,95412.78
2023-04-12T20:52:52.178Z,95404.13
2023-04-12T20:55:18.842Z,95426.91
2023-04-12T20:57:45.281Z,95422.47
2023-04-12T21:00:17.858Z,95429.31
2023-04-12T21:02:48.731Z,95429.31
2023-04-12T21:05:17.001Z,95437.38
2023-04-12T21:07:43.600Z,95450.91
2023-04-12T21:10:12.592Z,95468.44
2023-04-12T21:12:39.715Z,95472.88
2023-04-12T21:15:07.519Z,95475.28
2023-04-12T21:17:35.428Z,95479.31
2023-04-12T21:20:07.245Z,95490.81
2023-04-12T21:22:33.566Z,95478.91
2023-04-12T21:25:01.112Z,95483.38
2023-04-12T21:27:27.775Z,95489.56
2023-04-12T21:29:54.651Z,95504.88
2023-04-12T21:32:21.279Z,95522.81
2023-04-12T21:34:50.097Z,95520.03
2023-04-12T21:37:18.426Z,95511.16
2023-04-12T21:39:44.881Z,95522.03
2023-04-12T21:42:11.295Z,95531.88
2023-04-12T21:44:39.564Z,95537.34
2023-04-12T21:47:06.623Z,95543.00
2023-04-12T21:49:34.334Z,95553.00
2023-04-12T21:52:00.690Z,95548.91
2023-04-12T21:54:31.366Z,95558.19
2023-04-12T21:56:58.269Z,95560.22
2023-04-12T21:59:25.623Z,95564.59
2023-04-12T22:01:52.249Z,95555.72
2023-04-12T22:04:19.248Z,95556.53
2023-04-12T22:06:48.186Z,95566.38
2023-04-12T22:09:14.544Z,95563.75
2023-04-12T22:11:40.900Z,95580.31
2023-04-12T22:14:15.297Z,95573.44
2023-04-12T22:16:41.884Z,95565.59
2023-04-12T22:19:08.494Z,95573.06
2023-04-12T22:21:35.847Z,95577.31
2023-04-12T22:24:02.352Z,95577.06
2023-04-12T22:26:31.416Z,95574.06
2023-04-12T22:28:58.211Z,95582.53
2023-04-12T22:31:26.105Z,95586.34
2023-04-12T22:33:54.940Z,95595.81
2023-04-12T22:36:21.852Z,95598.59
2023-04-12T22:38:48.924Z,95597.19
2023-04-12T22:41:15.828Z,95600.41
2023-04-12T22:43:42.507Z,95605.81
2023-04-12T22:46:16.060Z,95616.47
2023-04-12T22:48:47.673Z,95619.13
2023-04-12T22:51:14.389Z,95612.84
2023-04-12T22:53:40.892Z,95608.81
2023-04-12T22:56:09.440Z,95620.06
2023-04-12T22:58:36.971Z,95618.81
2023-04-12T23:01:06.539Z,95622.44
2023-04-12T23:03:32.997Z,95628.66
2023-04-12T23:06:00.148Z,95630.06
2023-04-12T23:08:26.487Z,95628.66
2023-04-12T23:10:53.263Z,95636.50
2023-04-12T23:13:19.665Z,95632.91
2023-04-12T23:15:47.050Z,95632.50
2023-04-12T23:18:16.165Z,95638.94
2023-04-12T23:20:44.790Z,95632.91
2023-04-12T23:23:11.160Z,95641.56
2023-04-12T23:25:44.728Z,95640.31
2023-04-12T23:28:15.797Z,95645.38
2023-04-12T23:30:43.283Z,95651.59
2023-04-12T23:33:12.075Z,95649.75
2023-04-12T23:35:39.196Z,95638.34
2023-04-12T23:38:05.701Z,95639.88
2023-04-12T23:40:32.036Z,95638.09
2023-04-12T23:42:58.676Z,95640.84
2023-04-12T23:45:25.099Z,95644.88
2023-04-12T23:47:51.705Z,95646.88
2023-04-12T23:50:18.221Z,95644.25
2023-04-12T23:52:44.944Z,95634.06
2023-04-12T23:55:11.263Z,95637.28
2023-04-12T23:57:37.577Z,95643.28
